Latest METARs, TAFs and NOTAMs for MROC


---------------------------------------------------------------------------
	(OBSERVATIONS)
MROC 230800Z 29005KT CAVOK 21/19 A2989 NOSIG=
MROC 230700Z 08006KT 040V140 CAVOK 22/19 A2992 NOSIG=
MROC 230600Z 06008KT CAVOK 22/19 A2992 NOSIG=
---------------------------------------------------------------------------
	(TERMINAL AREA FORECAST)
MROC 230500Z 2306/2406 07005KT 9999 FEW030
    TX28/2318Z TN19/2310Z
    TEMPO 2306/2310 VRB02KT
    BECMG 2314/2317 24007KT
    TEMPO 2320/2324 -TSRA FEW015CB
    TEMPO 2400/2405 VRB02KT BCFG FEW003=
---------------------------------------------------------------------------
	(NOTAMS)


MROC A0307/18 REF AIRAC AMDT NR 22 EFFECTIVE DATE 01 FEB 18,MROC
    AD 10.5 RNP W2 RWY 25 (AR) AVAILABLE FOR ACFT CAT D. 13 FEB
    18:19 2018 UNTIL PERM. CREATED: 13 FEB 18:23 2018

MROC A0317/18 REF AIRAC AMDT NR 22 EFFECTIVE DATE 01 FEB 18,
    MROC AD 10.6 RNP E2 RWY 25 (AR) AVAILABLE FOR ACFT CAT D.
    13 FEB 21:58 2018 UNTIL PERM. CREATED: 13 FEB 22:03 2018

MROC A0474/18 REF COSTA RICA AIP PAGS ENR 3.1-5, ENR 3.2-5, ENR
    3.3-1, ENR 4.4-1, MROC AD 7.2, MROC AD 7.6, MROC AD 9.2,
    MROC AD 9.6, ISEBA COORDINATES READ 093229N0825212W INSTEAD
    OF 093006N0824950W OR 084805.8N0841143.2W. 06 MAR 22:09 2018
    UNTIL PERM. CREATED: 06 MAR 22:09 2018

MROC A0741/18 INSTRUMENT APCH PROC RNAV GNSS RWY 07 CNL REF AD
    10.4/SUP AIP A03/16. 18 APR 19:32 2018 UNTIL PERM. CREATED:
    18 APR 19:34 2018

MROC A1329/18 COSTA RICA AIP AIRAC EFFECTIVE DATE 13 SEP 2018
    NIL. 13 SEP 00:00 2018 UNTIL 27 SEP 23:59 2018. CREATED:
    02 AUG 14:13 2018

MROC A1417/18 AD FOR GEN AVIATION INTL OVERNIGHT STAY PROHIBITED.
    19 AUG 09:53 2018 UNTIL 19 NOV 23:59 2018. CREATED: 19 AUG
    10:03 2018

MROC A1476/18 OBST ERECTED CRANE OF 32M HGT WITH COORD 100016N
    0841010W CTN ADVISED. 03 SEP 00:00 2018 UNTIL 31 OCT 23:59
    2018. CREATED: 31 AUG 14:37 2018

MROC A1567/18 RWY 07 ASDA 3011M DISTANCES DECLARED CHANGED. 12
    SEP 16:24 2018 UNTIL 28 SEP 23:59 2018. CREATED: 12 SEP 16:24
    2018

MROC A1568/18 SWY RWY 07 DISABLED. 12 SEP 16:25 2018 UNTIL 28
    SEP 23:59 2018. CREATED: 12 SEP 16:25 2018

MROC A1572/16 VMC PROCEDURE AIRSPACE C REF COSTA RICA AIP PAGE
    MROC AD 2.23 CNL. 25 AUG 01:54 2016 UNTIL PERM. CREATED:
    25 AUG 01:55 2016

MROC A1581/18 TWY B CLSD. 18 SEP 05:00 2018 UNTIL 24 SEP 10:30
    2018. CREATED: 13 SEP 17:05 2018

MROC A1582/18 TWY C CLSD. 25 SEP 05:00 2018 UNTIL 01 OCT 10:30
    2018. CREATED: 13 SEP 17:07 2018

MROC A1583/18 TWY D CLOSED. 02 OCT 05:00 2018 UNTIL 08 OCT 10:30
    2018. CREATED: 13 SEP 17:08 2018

MROC A1584/18 TWY G SOUTH SIDE CLSD. 09 OCT 05:00 2018 UNTIL
    15 OCT 10:30 2018. CREATED: 13 SEP 17:10 2018

MROC A1611/18 TWY A 50M WEST OF TWY D TIL 100M EAST OF TWY E
    OPR BUT CTN ADVISED DUE TO WIP. 1200-2359, 18 SEP 19:59 2018
    UNTIL 24 SEP 23:59 2018. CREATED: 18 SEP 20:03 2018

MROC A1621/18 MOV AREA RWY 07 HOLDING BAY OPR BUT CTN ADVISE
    DUE TO WIP. 16 OCT 05:00 2018 UNTIL 29 OCT 10:30 2018. CREATED:
    20 SEP 22:10 2018

MROC A1624/18 TWY A 50M WEST OF TWY F TIL RWY 07 HOLDING BAY
    CLSD. 0500-1030, 22 SEP 05:00 2018 UNTIL 07 DEC 10:30 2018.
    CREATED: 22 SEP 04:14 2018

MROC A1625/18 TWY G CLSD. 0500-1030, 22 SEP 05:00 2018 UNTIL
    07 DEC 10:30 2018. CREATED: 22 SEP 04:15 2018

MROC A1626/18 TWY EDGE LGT TWY A,B,C,D AND G SOUTH SIDE U/S.
    0500 1030, 22 SEP 04:21 2018 UNTIL 05 OCT 10:30 2018. CREATED:
    22 SEP 04:25 2018

MROC C0293/17 CORREDOR VISUAL LA PALMA SE CORRIGEN LAS COORDENADAS
    DEL PUNTO PIEDA :095848N 0840224W.REF.SUP C27/16. 18 JUL
    21:58 2017 UNTIL PERM. CREATED: 18 JUL 21:59 2017

MROC V0107/18 [US DOD PROCEDURAL NOTAM] INSTRUMENT APPROACH PROCEDURE
    NOT AUTHORIZED VOR/DME RWY 07. 11 SEP 18:57 2018 UNTIL 08
    NOV 23:59 2018. CREATED: 11 SEP 18:57 2018

MROC V0108/18 [US DOD PROCEDURAL NOTAM] INSTRUMENT APPROACH PROCEDURE
    NOT AUTHORIZED ILS/DME RWY 07. 11 SEP 18:58 2018 UNTIL 08
    NOV 23:59 2018. CREATED: 11 SEP 18:58 2018

---------------------------------------------------------------------------